createdAt,value
2019-05-30T00:02:07.202Z,2.47
2019-05-30T00:04:37.409Z,2.70
2019-05-30T00:07:10.919Z,2.50
2019-05-30T00:09:40.362Z,2.60
2019-05-30T00:12:10.561Z,2.90
2019-05-30T00:14:40.722Z,2.40
2019-05-30T00:17:10.931Z,2.10
2019-05-30T00:19:41.078Z,2.40
2019-05-30T00:22:11.220Z,2.40
2019-05-30T00:24:41.642Z,2.03
2019-05-30T00:27:11.893Z,2.70
2019-05-30T00:29:42.204Z,2.27
2019-05-30T00:32:12.339Z,2.70
2019-05-30T00:34:42.488Z,2.43
2019-05-30T00:37:12.624Z,2.27
2019-05-30T00:39:43.853Z,1.90
2019-05-30T00:42:14.939Z,2.20
2019-05-30T00:44:45.073Z,2.20
2019-05-30T00:47:15.197Z,1.97
2019-05-30T00:49:45.413Z,2.17
2019-05-30T00:52:15.543Z,2.37
2019-05-30T00:54:45.780Z,2.30
2019-05-30T00:57:16.885Z,2.40
2019-05-30T00:59:47.043Z,2.10
2019-05-30T01:02:17.341Z,2.37
2019-05-30T01:04:47.489Z,1.90
2019-05-30T01:07:17.982Z,2.10
2019-05-30T01:09:48.116Z,2.70
2019-05-30T01:12:18.244Z,1.97
2019-05-30T01:14:48.398Z,2.20
2019-05-30T01:17:18.533Z,2.13
2019-05-30T01:19:48.676Z,1.83
2019-05-30T01:22:18.882Z,1.97
2019-05-30T01:24:49.023Z,1.93
2019-05-30T01:27:19.161Z,2.30
2019-05-30T01:29:49.495Z,2.10
2019-05-30T01:32:30.771Z,2.10
2019-05-30T01:35:01.978Z,2.30
2019-05-30T01:37:32.664Z,2.30
2019-05-30T01:40:04.128Z,1.93
2019-05-30T01:42:34.522Z,2.00
2019-05-30T01:45:08.486Z,1.87
2019-05-30T01:47:38.785Z,2.10
2019-05-30T01:50:09.539Z,2.00
2019-05-30T01:52:39.673Z,2.10
2019-05-30T01:55:09.872Z,2.37
2019-05-30T01:57:40.065Z,2.20
2019-05-30T02:00:20.659Z,1.87
2019-05-30T02:02:47.494Z,1.80
2019-05-30T02:05:17.628Z,2.13
2019-05-30T02:07:47.754Z,2.03
2019-05-30T02:10:18.181Z,1.97
2019-05-30T02:12:48.305Z,1.87
2019-05-30T02:15:18.461Z,1.80
2019-05-30T02:17:48.593Z,1.93
2019-05-30T02:20:18.726Z,2.20
2019-05-30T02:22:48.856Z,2.00
2019-05-30T02:25:19.006Z,1.73
2019-05-30T02:27:49.137Z,1.70
2019-05-30T02:30:19.287Z,1.93
2019-05-30T02:32:49.415Z,1.80
2019-05-30T02:35:19.557Z,1.63
2019-05-30T02:37:49.682Z,1.70
2019-05-30T02:40:19.826Z,2.13
2019-05-30T02:42:49.973Z,1.80
2019-05-30T02:45:20.372Z,1.70
2019-05-30T02:47:50.570Z,1.63
2019-05-30T02:50:20.722Z,1.77
2019-05-30T02:52:50.850Z,1.70
2019-05-30T02:55:20.998Z,1.93
2019-05-30T02:57:51.118Z,2.10
2019-05-30T03:00:34.463Z,1.70
2019-05-30T03:03:06.729Z,2.00
2019-05-30T03:05:37.241Z,1.77
2019-05-30T03:08:09.799Z,1.50
2019-05-30T03:10:40.452Z,1.93
2019-05-30T03:13:11.234Z,1.70
2019-05-30T03:15:42.429Z,1.60
2019-05-30T03:18:14.609Z,1.40
2019-05-30T03:20:44.669Z,1.47
2019-05-30T03:23:15.154Z,1.60
2019-05-30T03:25:45.362Z,1.80
2019-05-30T03:28:15.464Z,1.60
2019-05-30T03:30:45.705Z,1.83
2019-05-30T03:33:36.406Z,1.63
2019-05-30T03:35:47.881Z,1.40
2019-05-30T03:38:17.978Z,1.63
2019-05-30T03:40:48.124Z,1.70
2019-05-30T03:43:18.247Z,1.53
2019-05-30T03:45:48.382Z,1.50
2019-05-30T03:48:18.545Z,1.60
2019-05-30T03:50:50.970Z,1.50
2019-05-30T03:53:22.079Z,1.50
2019-05-30T03:55:57.220Z,1.50
2019-05-30T03:58:38.066Z,1.70
2019-05-30T04:01:12.635Z,1.50
2019-05-30T04:04:13.829Z,1.53
2019-05-30T04:06:47.618Z,1.40
2019-05-30T04:09:22.430Z,1.60
2019-05-30T04:12:22.948Z,1.60
2019-05-30T04:14:55.499Z,1.37
2019-05-30T04:17:25.631Z,1.53
2019-05-30T04:19:55.768Z,1.50
2019-05-30T04:22:25.919Z,1.63
2019-05-30T04:24:56.036Z,1.50
2019-05-30T04:27:26.201Z,1.30
2019-05-30T04:29:56.358Z,1.40
2019-05-30T04:32:26.480Z,1.60
2019-05-30T04:34:56.612Z,1.40
2019-05-30T04:37:26.825Z,1.37
2019-05-30T04:39:56.982Z,1.47
2019-05-30T04:42:29.755Z,1.40
2019-05-30T04:44:59.890Z,1.40
2019-05-30T04:47:30.028Z,1.30
2019-05-30T04:50:01.203Z,1.67
2019-05-30T04:52:31.416Z,1.30
2019-05-30T04:55:01.597Z,1.50
2019-05-30T04:57:31.728Z,1.50
2019-05-30T05:00:01.884Z,1.50
2019-05-30T05:02:32.163Z,1.40
2019-05-30T05:05:02.284Z,1.47
2019-05-30T05:07:32.438Z,1.50
2019-05-30T05:10:07.005Z,1.50
2019-05-30T05:12:38.109Z,1.27
2019-05-30T05:15:08.301Z,1.40
2019-05-30T05:17:38.609Z,1.30
2019-05-30T05:20:09.106Z,1.27
2019-05-30T05:22:39.243Z,1.30
2019-05-30T05:25:09.381Z,1.10
2019-05-30T05:27:39.607Z,1.20
2019-05-30T05:30:10.542Z,1.20
2019-05-30T05:32:40.687Z,1.30
2019-05-30T05:35:10.814Z,1.90
2019-05-30T05:37:40.970Z,1.20
2019-05-30T05:40:11.100Z,1.30
2019-05-30T05:42:41.251Z,1.30
2019-05-30T05:45:12.055Z,1.50
2019-05-30T05:47:42.197Z,1.27
2019-05-30T05:50:12.335Z,1.20
2019-05-30T05:52:43.489Z,1.17
2019-05-30T05:55:14.640Z,1.20
2019-05-30T05:57:44.836Z,1.30
2019-05-30T06:00:15.029Z,1.30
2019-05-30T06:02:45.179Z,1.10
2019-05-30T06:05:15.970Z,1.30
2019-05-30T06:07:46.207Z,1.67
2019-05-30T06:10:17.394Z,1.23
2019-05-30T06:12:47.765Z,1.23
2019-05-30T06:15:18.788Z,1.37
2019-05-30T06:17:49.085Z,1.40
2019-05-30T06:20:19.299Z,1.17
2019-05-30T06:22:49.689Z,1.50
2019-05-30T06:25:24.050Z,1.60
2019-05-30T06:27:51.699Z,1.47
2019-05-30T06:30:22.343Z,1.37
2019-05-30T06:32:53.586Z,1.30
2019-05-30T06:35:24.966Z,1.40
2019-05-30T06:37:55.169Z,1.23
2019-05-30T06:40:25.589Z,1.60
2019-05-30T06:42:55.918Z,1.30
2019-05-30T06:45:26.847Z,1.60
2019-05-30T06:47:57.099Z,1.60
2019-05-30T06:50:27.233Z,1.60
2019-05-30T06:52:57.445Z,1.50
2019-05-30T06:55:27.594Z,1.40
2019-05-30T06:57:57.718Z,1.10
2019-05-30T07:00:28.153Z,1.10
2019-05-30T07:02:58.298Z,1.53
2019-05-30T07:05:30.581Z,1.60
2019-05-30T07:08:00.276Z,1.40
2019-05-30T07:10:31.108Z,1.40
2019-05-30T07:13:01.393Z,1.53
2019-05-30T07:15:31.524Z,1.40
2019-05-30T07:18:02.637Z,1.53
2019-05-30T07:20:33.825Z,1.30
2019-05-30T07:23:04.113Z,1.20
2019-05-30T07:25:34.247Z,1.40
2019-05-30T07:28:04.551Z,1.70
2019-05-30T07:30:34.692Z,1.40
2019-05-30T07:33:04.825Z,1.53
2019-05-30T07:35:34.973Z,1.50
2019-05-30T07:38:05.091Z,1.30
2019-05-30T07:40:35.329Z,1.27
2019-05-30T07:43:05.484Z,1.20
2019-05-30T07:45:35.642Z,1.83
2019-05-30T07:48:05.838Z,4.07
2019-05-30T07:50:35.975Z,5.07
2019-05-30T07:53:06.116Z,13.17
2019-05-30T07:55:36.266Z,18.83
2019-05-30T07:58:06.413Z,23.93
2019-05-30T08:00:37.654Z,30.27
2019-05-30T08:03:07.894Z,25.57
2019-05-30T08:05:38.996Z,22.17
2019-05-30T08:08:10.139Z,21.47
2019-05-30T08:10:40.304Z,18.90
2019-05-30T08:13:10.455Z,17.00
2019-05-30T08:15:44.037Z,15.60
2019-05-30T08:18:12.457Z,13.93
2019-05-30T08:20:45.987Z,14.07
2019-05-30T08:23:16.834Z,13.27
2019-05-30T08:25:46.987Z,12.53
2019-05-30T08:28:17.128Z,12.07
2019-05-30T08:30:47.288Z,11.37
2019-05-30T08:33:17.453Z,10.47
2019-05-30T08:35:50.152Z,10.07
2019-05-30T08:38:19.728Z,10.07
2019-05-30T08:40:49.903Z,9.47
2019-05-30T08:43:20.235Z,8.87
2019-05-30T08:45:50.434Z,8.47
2019-05-30T08:48:20.636Z,7.83
2019-05-30T08:50:50.858Z,8.17
2019-05-30T08:53:20.992Z,7.80
2019-05-30T08:55:51.151Z,7.17
2019-05-30T08:58:21.287Z,7.50
2019-05-30T09:00:52.471Z,6.53
2019-05-30T09:03:22.637Z,6.73
2019-05-30T09:06:02.986Z,7.27
2019-05-30T09:08:24.626Z,6.93
2019-05-30T09:10:54.788Z,7.10
2019-05-30T09:13:24.921Z,7.07
2019-05-30T09:15:55.074Z,6.27
2019-05-30T09:18:25.234Z,6.33
2019-05-30T09:20:55.386Z,6.27
2019-05-30T09:23:25.521Z,6.67
2019-05-30T09:25:55.663Z,6.47
2019-05-30T09:28:25.902Z,5.03
2019-05-30T09:30:56.060Z,4.63
2019-05-30T09:33:26.187Z,4.17
2019-05-30T09:36:09.952Z,4.27
2019-05-30T09:38:28.347Z,4.10
2019-05-30T09:40:58.484Z,3.87
2019-05-30T09:43:28.633Z,4.57
2019-05-30T09:45:58.778Z,4.57
2019-05-30T09:48:29.187Z,5.03
2019-05-30T09:50:59.406Z,3.97
2019-05-30T09:53:29.793Z,3.57
2019-05-30T09:55:59.942Z,3.20
2019-05-30T09:58:30.081Z,3.17
2019-05-30T10:01:00.816Z,2.93
2019-05-30T10:03:30.956Z,3.10
2019-05-30T10:06:01.112Z,2.57
2019-05-30T10:08:31.242Z,3.10
2019-05-30T10:11:01.437Z,3.60
2019-05-30T10:13:31.605Z,3.43
2019-05-30T10:16:01.739Z,3.37
2019-05-30T10:18:32.941Z,2.93
2019-05-30T10:21:04.171Z,2.30
2019-05-30T10:23:34.419Z,2.23
2019-05-30T10:26:04.695Z,2.80
2019-05-30T10:28:34.921Z,2.40
2019-05-30T10:31:05.078Z,2.60
2019-05-30T10:33:35.212Z,2.37
2019-05-30T10:36:05.358Z,2.60
2019-05-30T10:38:35.568Z,3.00
2019-05-30T10:41:05.683Z,2.50
2019-05-30T10:43:35.880Z,2.50
2019-05-30T10:46:06.081Z,2.50
2019-05-30T10:48:36.277Z,2.50
2019-05-30T10:51:06.561Z,2.40
2019-05-30T10:53:37.766Z,2.63
2019-05-30T10:56:08.039Z,2.40
2019-05-30T10:58:38.170Z,2.20
2019-05-30T11:01:09.356Z,2.70
2019-05-30T11:03:39.500Z,2.10
2019-05-30T11:06:35.513Z,2.23
2019-05-30T11:09:07.188Z,1.90
2019-05-30T11:11:37.691Z,1.50
2019-05-30T11:14:08.107Z,1.43
2019-05-30T11:16:38.305Z,1.50
2019-05-30T11:19:08.452Z,1.80
2019-05-30T11:21:38.640Z,1.20
2019-05-30T11:24:09.116Z,1.30
2019-05-30T11:26:39.450Z,1.60
2019-05-30T11:29:09.838Z,1.73
2019-05-30T11:31:39.966Z,1.80
2019-05-30T11:34:10.225Z,1.50
2019-05-30T11:36:40.529Z,1.63
2019-05-30T11:39:10.972Z,1.60
2019-05-30T11:41:41.357Z,1.67
2019-05-30T11:44:11.811Z,1.60
2019-05-30T11:46:42.102Z,1.70
2019-05-30T11:49:16.139Z,1.40
2019-05-30T11:51:48.024Z,1.30
2019-05-30T11:54:18.775Z,1.40
2019-05-30T11:56:50.028Z,1.43
2019-05-30T11:59:20.289Z,1.40
2019-05-30T12:01:50.415Z,1.40
2019-05-30T12:04:20.765Z,1.20
2019-05-30T12:06:51.559Z,1.40
2019-05-30T12:09:22.915Z,1.20
2019-05-30T12:11:53.187Z,1.20
2019-05-30T12:14:23.275Z,1.27
2019-05-30T12:16:53.397Z,1.40
2019-05-30T12:19:23.524Z,1.10
2019-05-30T12:21:53.658Z,1.10
2019-05-30T12:24:24.879Z,1.83
2019-05-30T12:26:56.009Z,1.00
2019-05-30T12:29:26.281Z,1.13
2019-05-30T12:31:59.217Z,1.07
2019-05-30T12:34:28.272Z,1.20
2019-05-30T12:36:58.566Z,1.10
2019-05-30T12:39:28.708Z,1.33
2019-05-30T12:41:59.019Z,1.57
2019-05-30T12:44:29.277Z,1.80
2019-05-30T12:46:59.469Z,1.40
2019-05-30T12:49:29.626Z,1.40
2019-05-30T12:52:00.569Z,1.60
2019-05-30T12:54:30.853Z,1.20
2019-05-30T12:57:01.048Z,1.50
2019-05-30T12:59:32.270Z,1.57
2019-05-30T13:02:03.112Z,1.17
2019-05-30T13:04:33.379Z,1.60
2019-05-30T13:07:04.012Z,1.40
2019-05-30T13:09:34.154Z,1.27
2019-05-30T13:12:04.293Z,1.33
2019-05-30T13:14:34.473Z,1.40
2019-05-30T13:17:05.926Z,1.27
2019-05-30T13:19:36.264Z,1.50
2019-05-30T13:22:07.491Z,1.50
2019-05-30T13:24:37.897Z,1.30
2019-05-30T13:27:08.029Z,1.30
2019-05-30T13:29:38.178Z,1.40
2019-05-30T13:32:08.316Z,3.53
2019-05-30T13:34:38.445Z,2.97
2019-05-30T13:37:08.572Z,2.70
2019-05-30T13:39:38.706Z,3.20
2019-05-30T13:42:08.913Z,3.73
2019-05-30T13:44:39.074Z,3.73
2019-05-30T13:47:09.199Z,2.87
2019-05-30T13:49:39.376Z,4.67
2019-05-30T13:52:09.482Z,2.80
2019-05-30T13:54:39.665Z,2.30
2019-05-30T13:57:09.834Z,2.37
2019-05-30T13:59:39.940Z,2.80
2019-05-30T14:02:10.340Z,3.33
2019-05-30T14:04:40.627Z,2.80
2019-05-30T14:07:10.828Z,2.80
2019-05-30T14:09:40.985Z,2.67
2019-05-30T14:12:11.286Z,3.90
2019-05-30T14:14:41.439Z,3.17
2019-05-30T14:17:13.618Z,3.10
2019-05-30T14:19:43.659Z,2.97
2019-05-30T14:22:13.973Z,8.97
2019-05-30T14:24:44.214Z,13.47
2019-05-30T14:27:14.351Z,10.07
2019-05-30T14:29:44.571Z,13.47
2019-05-30T14:32:14.727Z,10.73
2019-05-30T14:34:47.992Z,9.50
2019-05-30T14:37:18.134Z,10.73
2019-05-30T14:39:48.260Z,12.70
2019-05-30T14:42:18.421Z,14.50
2019-05-30T14:44:48.547Z,19.93
2019-05-30T14:47:18.698Z,18.30
2019-05-30T14:49:48.910Z,39.50
2019-05-30T14:52:19.066Z,24.93
2019-05-30T14:54:49.319Z,28.07
2019-05-30T14:57:19.734Z,26.30
2019-05-30T14:59:49.870Z,26.93
2019-05-30T15:02:20.309Z,32.57
2019-05-30T15:04:50.447Z,32.40
2019-05-30T15:07:20.607Z,32.90
2019-05-30T15:09:50.863Z,31.50
2019-05-30T15:12:21.104Z,27.57
2019-05-30T15:14:52.890Z,31.73
2019-05-30T15:17:23.124Z,27.47
2019-05-30T15:19:53.399Z,25.90
2019-05-30T15:22:23.886Z,25.63
2019-05-30T15:24:54.322Z,26.07
2019-05-30T15:27:24.554Z,22.13
2019-05-30T15:29:54.706Z,23.80
2019-05-30T15:32:24.924Z,21.40
2019-05-30T15:34:58.276Z,22.57
2019-05-30T15:37:28.428Z,20.73
2019-05-30T15:39:58.579Z,20.53
2019-05-30T15:42:28.852Z,19.60
2019-05-30T15:44:59.017Z,19.53
2019-05-30T15:47:29.171Z,19.13
2019-05-30T15:49:59.399Z,16.77
2019-05-30T15:52:29.558Z,16.53
2019-05-30T15:54:59.787Z,17.17
2019-05-30T15:57:29.983Z,14.57
2019-05-30T16:00:00.397Z,15.70
2019-05-30T16:02:30.697Z,16.33
2019-05-30T16:05:00.828Z,15.47
2019-05-30T16:07:32.354Z,15.60
2019-05-30T16:10:02.979Z,14.23
2019-05-30T16:12:33.382Z,13.37
2019-05-30T16:15:04.900Z,12.97
2019-05-30T16:17:38.877Z,13.03
2019-05-30T16:20:09.407Z,12.10
2019-05-30T16:22:39.556Z,11.47
2019-05-30T16:25:09.701Z,11.30
2019-05-30T16:27:39.836Z,11.10
2019-05-30T16:30:10.699Z,9.50
2019-05-30T16:32:41.017Z,10.60
2019-05-30T16:35:11.314Z,10.10
2019-05-30T16:37:41.553Z,9.60
2019-05-30T16:40:12.112Z,9.23
2019-05-30T16:42:42.269Z,9.87
2019-05-30T16:45:12.491Z,9.63
2019-05-30T16:47:42.744Z,8.87
2019-05-30T16:50:14.627Z,8.63
2019-05-30T16:52:44.876Z,8.03
2019-05-30T16:55:15.232Z,7.93
2019-05-30T16:57:45.386Z,6.43
2019-05-30T17:00:15.873Z,7.43
2019-05-30T17:02:46.011Z,6.83
2019-05-30T17:05:16.148Z,3.97
2019-05-30T17:07:48.498Z,6.57
2019-05-30T17:10:25.602Z,6.20
2019-05-30T17:12:50.122Z,6.13
2019-05-30T17:15:20.263Z,6.27
2019-05-30T17:17:50.407Z,5.77
2019-05-30T17:20:20.702Z,6.17
2019-05-30T17:22:50.819Z,5.27
2019-05-30T17:25:21.050Z,4.90
2019-05-30T17:27:51.182Z,4.70
2019-05-30T17:30:23.715Z,4.70
2019-05-30T17:32:55.166Z,5.00
2019-05-30T17:35:26.233Z,4.53
2019-05-30T17:37:56.546Z,4.10
2019-05-30T17:40:41.261Z,4.10
2019-05-30T17:42:58.531Z,4.97
2019-05-30T17:45:29.475Z,3.57
2019-05-30T17:48:15.567Z,4.17
2019-05-30T17:50:31.523Z,4.20
2019-05-30T17:53:06.345Z,3.60
2019-05-30T17:55:36.502Z,3.17
2019-05-30T17:58:10.154Z,2.80
2019-05-30T18:00:38.915Z,2.87
2019-05-30T18:03:09.055Z,2.70
2019-05-30T18:05:39.281Z,2.47
2019-05-30T18:08:09.394Z,2.70
2019-05-30T18:10:52.975Z,2.50
2019-05-30T18:13:12.569Z,2.60
2019-05-30T18:15:42.929Z,2.80
2019-05-30T18:18:13.003Z,2.57
2019-05-30T18:20:48.424Z,2.80
2019-05-30T18:23:14.951Z,2.97
2019-05-30T18:25:45.166Z,2.77
2019-05-30T18:28:15.294Z,2.53
2019-05-30T18:30:46.462Z,2.30
2019-05-30T18:33:16.581Z,3.10
2019-05-30T18:35:46.719Z,2.40
2019-05-30T18:38:16.864Z,2.33
2019-05-30T18:40:48.021Z,2.43
2019-05-30T18:43:18.153Z,2.53
2019-05-30T18:45:48.283Z,2.13
2019-05-30T18:48:18.408Z,2.33
2019-05-30T18:50:48.728Z,2.23
2019-05-30T18:53:18.860Z,2.03
2019-05-30T18:55:49.029Z,1.87
2019-05-30T18:58:19.150Z,1.83
2019-05-30T19:00:49.288Z,1.97
2019-05-30T19:03:19.495Z,2.03
2019-05-30T19:05:49.652Z,1.80
2019-05-30T19:08:20.928Z,1.77
2019-05-30T19:10:51.188Z,1.93
2019-05-30T19:13:21.312Z,2.03
2019-05-30T19:15:51.677Z,1.90
2019-05-30T19:18:21.882Z,1.70
2019-05-30T19:20:52.014Z,2.23
2019-05-30T19:23:22.148Z,1.60
2019-05-30T19:25:52.469Z,2.03
2019-05-30T19:28:22.603Z,1.83
2019-05-30T19:30:52.811Z,2.20
2019-05-30T19:33:22.938Z,1.73
2019-05-30T19:35:53.094Z,1.67
2019-05-30T19:38:23.226Z,1.57
2019-05-30T19:40:58.159Z,1.80
2019-05-30T19:43:29.721Z,1.67
2019-05-30T19:45:59.938Z,2.13
2019-05-30T19:48:30.302Z,1.80
2019-05-30T19:51:01.630Z,2.00
2019-05-30T19:53:34.960Z,1.63
2019-05-30T19:56:05.472Z,1.70
2019-05-30T19:58:35.679Z,1.57
2019-05-30T20:01:06.172Z,1.77
2019-05-30T20:03:44.772Z,1.40
2019-05-30T20:06:08.150Z,1.37
2019-05-30T20:08:51.319Z,1.70
2019-05-30T20:11:10.123Z,1.47
2019-05-30T20:13:41.302Z,1.57
2019-05-30T20:16:11.475Z,1.47
2019-05-30T20:18:41.814Z,1.50
2019-05-30T20:21:12.147Z,1.30
2019-05-30T20:23:53.735Z,1.20
2019-05-30T20:26:14.371Z,1.37
2019-05-30T20:28:44.525Z,1.50
2019-05-30T20:31:14.676Z,1.20
2019-05-30T20:33:46.833Z,1.60
2019-05-30T20:36:17.187Z,1.40
2019-05-30T20:38:47.398Z,1.53
2019-05-30T20:41:17.541Z,1.40
2019-05-30T20:43:47.694Z,1.27
2019-05-30T20:46:23.058Z,1.33
2019-05-30T20:48:50.744Z,1.53
2019-05-30T20:51:21.685Z,1.40
2019-05-30T20:53:54.767Z,1.60
2019-05-30T20:56:24.206Z,1.53
2019-05-30T20:58:54.771Z,1.50
2019-05-30T21:01:26.981Z,1.73
2019-05-30T21:03:57.912Z,1.67
2019-05-30T21:06:28.210Z,1.57
2019-05-30T21:08:59.977Z,1.20
2019-05-30T21:11:30.504Z,1.40
2019-05-30T21:14:00.680Z,1.40
2019-05-30T21:16:31.011Z,1.40
2019-05-30T21:19:02.107Z,1.27
2019-05-30T21:21:32.273Z,1.50
2019-05-30T21:24:02.509Z,1.47
2019-05-30T21:26:32.833Z,1.33
2019-05-30T21:29:02.954Z,1.30
2019-05-30T21:31:34.030Z,1.40
2019-05-30T21:34:04.566Z,1.50
2019-05-30T21:36:35.122Z,1.37
2019-05-30T21:39:07.808Z,1.40
2019-05-30T21:41:38.139Z,1.70
2019-05-30T21:44:08.274Z,1.50
2019-05-30T21:46:38.664Z,1.37
2019-05-30T21:49:09.896Z,1.20
2019-05-30T21:51:41.263Z,1.40
2019-05-30T21:54:11.512Z,1.40
2019-05-30T21:56:41.968Z,1.17
2019-05-30T21:59:12.172Z,1.33
2019-05-30T22:01:42.657Z,1.37
2019-05-30T22:04:12.794Z,1.30
2019-05-30T22:06:42.922Z,1.40
2019-05-30T22:09:13.142Z,1.30
2019-05-30T22:11:43.703Z,1.43
2019-05-30T22:14:14.923Z,1.20
2019-05-30T22:16:45.914Z,1.30
2019-05-30T22:19:16.180Z,1.20
2019-05-30T22:21:46.481Z,1.30
2019-05-30T22:24:16.625Z,1.10
2019-05-30T22:26:46.760Z,1.40
2019-05-30T22:29:16.895Z,1.20
2019-05-30T22:31:47.025Z,1.40
2019-05-30T22:34:18.239Z,1.20
2019-05-30T22:36:48.956Z,1.10
2019-05-30T22:39:19.191Z,1.20
2019-05-30T22:41:49.999Z,1.27
2019-05-30T22:44:20.251Z,1.20
2019-05-30T22:46:52.335Z,1.30
2019-05-30T22:49:22.489Z,1.20
2019-05-30T22:51:53.199Z,1.10
2019-05-30T22:54:23.444Z,1.20
2019-05-30T22:56:53.654Z,1.20
2019-05-30T22:59:23.782Z,1.10
2019-05-30T23:01:53.915Z,1.20
2019-05-30T23:04:24.051Z,1.00
2019-05-30T23:06:54.591Z,1.07
2019-05-30T23:09:24.916Z,1.10
2019-05-30T23:11:55.972Z,1.20
2019-05-30T23:14:26.238Z,1.10
2019-05-30T23:16:56.515Z,1.30
2019-05-30T23:19:26.673Z,1.10
2019-05-30T23:21:57.271Z,1.13
2019-05-30T23:24:27.412Z,1.00
2019-05-30T23:26:57.935Z,0.80
2019-05-30T23:29:29.237Z,1.10
2019-05-30T23:31:59.436Z,1.07
2019-05-30T23:34:29.572Z,0.90
2019-05-30T23:36:59.706Z,1.00
2019-05-30T23:39:29.845Z,1.00
2019-05-30T23:41:59.971Z,1.20
2019-05-30T23:44:30.118Z,0.90
2019-05-30T23:47:00.241Z,1.00
2019-05-30T23:49:30.442Z,1.10
2019-05-30T23:52:00.579Z,1.10
2019-05-30T23:54:30.716Z,1.10
2019-05-30T23:57:00.923Z,1.13
2019-05-30T23:59:32.124Z,1.10
